sensor_id;sensor_type;location;lat;lon;timestamp;P1;durP1;ratioP1;P2;durP2;ratioP2
1545;SDS011;766;51.502;9.752;2023-12-22T00:00:06;25.40;;;3.85;;
1545;SDS011;766;51.502;9.752;2023-12-22T00:02:35;19.23;;;3.35;;
1545;SDS011;766;51.502;9.752;2023-12-22T00:05:03;21.25;;;3.70;;
1545;SDS011;766;51.502;9.752;2023-12-22T00:07:32;23.27;;;4.18;;
1545;SDS011;766;51.502;9.752;2023-12-22T00:10:00;22.25;;;3.45;;
1545;SDS011;766;51.502;9.752;2023-12-22T00:12:28;20.13;;;2.90;;
1545;SDS011;766;51.502;9.752;2023-12-22T00:14:56;22.80;;;3.08;;
1545;SDS011;766;51.502;9.752;2023-12-22T00:17:26;23.67;;;3.63;;
1545;SDS011;766;51.502;9.752;2023-12-22T00:19:54;15.02;;;3.30;;
1545;SDS011;766;51.502;9.752;2023-12-22T00:22:25;25.23;;;3.60;;
1545;SDS011;766;51.502;9.752;2023-12-22T00:24:53;19.38;;;3.03;;
1545;SDS011;766;51.502;9.752;2023-12-22T00:27:21;19.50;;;3.97;;
1545;SDS011;766;51.502;9.752;2023-12-22T00:29:49;21.33;;;4.05;;
1545;SDS011;766;51.502;9.752;2023-12-22T00:32:18;18.83;;;3.22;;
1545;SDS011;766;51.502;9.752;2023-12-22T00:34:47;15.45;;;3.28;;
1545;SDS011;766;51.502;9.752;2023-12-22T00:37:15;21.15;;;3.58;;
1545;SDS011;766;51.502;9.752;2023-12-22T00:39:43;21.60;;;3.00;;
1545;SDS011;766;51.502;9.752;2023-12-22T00:42:12;23.13;;;3.85;;
1545;SDS011;766;51.502;9.752;2023-12-22T00:44:40;25.85;;;3.50;;
1545;SDS011;766;51.502;9.752;2023-12-22T00:47:08;23.83;;;3.50;;
1545;SDS011;766;51.502;9.752;2023-12-22T00:49:36;21.77;;;3.63;;
1545;SDS011;766;51.502;9.752;2023-12-22T00:52:06;24.85;;;4.22;;
1545;SDS011;766;51.502;9.752;2023-12-22T00:54:34;21.80;;;3.28;;
1545;SDS011;766;51.502;9.752;2023-12-22T00:57:02;27.50;;;4.85;;
1545;SDS011;766;51.502;9.752;2023-12-22T00:59:30;21.35;;;3.60;;
1545;SDS011;766;51.502;9.752;2023-12-22T01:01:58;18.13;;;3.10;;
1545;SDS011;766;51.502;9.752;2023-12-22T01:04:27;16.27;;;2.63;;
1545;SDS011;766;51.502;9.752;2023-12-22T01:06:55;17.85;;;2.95;;
1545;SDS011;766;51.502;9.752;2023-12-22T01:09:25;16.13;;;3.15;;
1545;SDS011;766;51.502;9.752;2023-12-22T01:11:53;17.75;;;2.53;;
1545;SDS011;766;51.502;9.752;2023-12-22T01:14:21;13.73;;;2.67;;
1545;SDS011;766;51.502;9.752;2023-12-22T01:16:49;10.93;;;1.85;;
1545;SDS011;766;51.502;9.752;2023-12-22T01:19:17;13.07;;;2.55;;
1545;SDS011;766;51.502;9.752;2023-12-22T01:21:45;14.50;;;2.88;;
1545;SDS011;766;51.502;9.752;2023-12-22T01:24:17;20.02;;;3.20;;
1545;SDS011;766;51.502;9.752;2023-12-22T01:26:47;16.25;;;3.70;;
1545;SDS011;766;51.502;9.752;2023-12-22T01:29:15;12.63;;;2.40;;
1545;SDS011;766;51.502;9.752;2023-12-22T01:31:43;11.27;;;2.33;;
1545;SDS011;766;51.502;9.752;2023-12-22T01:34:11;11.95;;;2.42;;
1545;SDS011;766;51.502;9.752;2023-12-22T01:36:39;12.95;;;2.38;;
1545;SDS011;766;51.502;9.752;2023-12-22T01:39:08;12.80;;;2.20;;
1545;SDS011;766;51.502;9.752;2023-12-22T01:41:36;13.43;;;2.65;;
1545;SDS011;766;51.502;9.752;2023-12-22T01:44:09;18.55;;;2.30;;
1545;SDS011;766;51.502;9.752;2023-12-22T01:46:37;11.25;;;2.17;;
1545;SDS011;766;51.502;9.752;2023-12-22T01:49:06;11.20;;;2.25;;
1545;SDS011;766;51.502;9.752;2023-12-22T01:51:35;22.00;;;4.00;;
1545;SDS011;766;51.502;9.752;2023-12-22T01:54:06;23.38;;;3.67;;
1545;SDS011;766;51.502;9.752;2023-12-22T01:56:34;18.75;;;2.72;;
1545;SDS011;766;51.502;9.752;2023-12-22T01:59:03;14.63;;;2.97;;
1545;SDS011;766;51.502;9.752;2023-12-22T02:01:33;19.05;;;2.30;;
1545;SDS011;766;51.502;9.752;2023-12-22T02:04:03;15.93;;;3.20;;
1545;SDS011;766;51.502;9.752;2023-12-22T02:06:32;17.38;;;2.83;;
1545;SDS011;766;51.502;9.752;2023-12-22T02:09:02;16.13;;;3.47;;
1545;SDS011;766;51.502;9.752;2023-12-22T02:11:31;12.52;;;2.97;;
1545;SDS011;766;51.502;9.752;2023-12-22T02:13:59;13.75;;;2.17;;
1545;SDS011;766;51.502;9.752;2023-12-22T02:16:31;16.70;;;3.28;;
1545;SDS011;766;51.502;9.752;2023-12-22T02:19:09;20.33;;;2.75;;
1545;SDS011;766;51.502;9.752;2023-12-22T02:22:01;17.30;;;3.17;;
1545;SDS011;766;51.502;9.752;2023-12-22T02:24:36;22.73;;;2.78;;
1545;SDS011;766;51.502;9.752;2023-12-22T02:27:05;27.88;;;3.55;;
1545;SDS011;766;51.502;9.752;2023-12-22T02:29:41;24.50;;;3.90;;
1545;SDS011;766;51.502;9.752;2023-12-22T02:32:17;21.33;;;3.40;;
1545;SDS011;766;51.502;9.752;2023-12-22T02:34:52;16.52;;;3.17;;
1545;SDS011;766;51.502;9.752;2023-12-22T02:37:22;18.40;;;3.40;;
1545;SDS011;766;51.502;9.752;2023-12-22T02:39:55;13.50;;;2.95;;
1545;SDS011;766;51.502;9.752;2023-12-22T02:42:24;14.35;;;2.95;;
1545;SDS011;766;51.502;9.752;2023-12-22T02:44:56;11.02;;;2.45;;
1545;SDS011;766;51.502;9.752;2023-12-22T02:47:25;12.52;;;2.25;;
1545;SDS011;766;51.502;9.752;2023-12-22T02:49:55;14.50;;;2.58;;
1545;SDS011;766;51.502;9.752;2023-12-22T02:52:23;5.78;;;1.65;;
1545;SDS011;766;51.502;9.752;2023-12-22T02:54:51;7.93;;;1.35;;
1545;SDS011;766;51.502;9.752;2023-12-22T02:57:21;12.90;;;1.55;;
1545;SDS011;766;51.502;9.752;2023-12-22T02:59:49;11.60;;;2.17;;
1545;SDS011;766;51.502;9.752;2023-12-22T03:02:17;16.95;;;2.75;;
1545;SDS011;766;51.502;9.752;2023-12-22T03:04:45;14.13;;;2.40;;
1545;SDS011;766;51.502;9.752;2023-12-22T03:07:16;10.18;;;1.95;;
1545;SDS011;766;51.502;9.752;2023-12-22T03:09:45;19.40;;;2.75;;
1545;SDS011;766;51.502;9.752;2023-12-22T03:12:13;14.20;;;2.50;;
1545;SDS011;766;51.502;9.752;2023-12-22T03:14:42;10.30;;;2.35;;
1545;SDS011;766;51.502;9.752;2023-12-22T03:17:10;16.38;;;2.47;;
1545;SDS011;766;51.502;9.752;2023-12-22T03:19:39;13.85;;;2.72;;
1545;SDS011;766;51.502;9.752;2023-12-22T03:22:07;8.45;;;2.20;;
1545;SDS011;766;51.502;9.752;2023-12-22T03:24:35;12.63;;;1.98;;
1545;SDS011;766;51.502;9.752;2023-12-22T03:27:05;18.75;;;2.63;;
1545;SDS011;766;51.502;9.752;2023-12-22T03:29:33;11.88;;;2.10;;
1545;SDS011;766;51.502;9.752;2023-12-22T03:32:03;22.50;;;3.63;;
1545;SDS011;766;51.502;9.752;2023-12-22T03:34:31;9.10;;;1.67;;
1545;SDS011;766;51.502;9.752;2023-12-22T03:37:00;13.80;;;2.03;;
1545;SDS011;766;51.502;9.752;2023-12-22T03:39:28;14.13;;;3.58;;
1545;SDS011;766;51.502;9.752;2023-12-22T03:41:56;16.92;;;3.00;;
1545;SDS011;766;51.502;9.752;2023-12-22T03:44:26;12.93;;;2.13;;
1545;SDS011;766;51.502;9.752;2023-12-22T03:46:54;11.23;;;2.20;;
1545;SDS011;766;51.502;9.752;2023-12-22T03:49:23;10.20;;;1.70;;
1545;SDS011;766;51.502;9.752;2023-12-22T03:51:52;14.38;;;2.65;;
1545;SDS011;766;51.502;9.752;2023-12-22T03:54:20;11.15;;;2.17;;
1545;SDS011;766;51.502;9.752;2023-12-22T03:56:48;8.77;;;1.75;;
1545;SDS011;766;51.502;9.752;2023-12-22T03:59:16;10.63;;;1.88;;
1545;SDS011;766;51.502;9.752;2023-12-22T04:01:49;16.65;;;2.20;;
1545;SDS011;766;51.502;9.752;2023-12-22T04:04:19;11.73;;;2.35;;
1545;SDS011;766;51.502;9.752;2023-12-22T04:06:50;12.85;;;2.58;;
1545;SDS011;766;51.502;9.752;2023-12-22T04:09:18;13.18;;;2.90;;
1545;SDS011;766;51.502;9.752;2023-12-22T04:11:46;20.58;;;3.10;;
1545;SDS011;766;51.502;9.752;2023-12-22T04:14:14;17.20;;;2.33;;
1545;SDS011;766;51.502;9.752;2023-12-22T04:16:44;11.18;;;2.13;;
1545;SDS011;766;51.502;9.752;2023-12-22T04:19:13;14.00;;;2.30;;
1545;SDS011;766;51.502;9.752;2023-12-22T04:21:41;14.27;;;2.20;;
1545;SDS011;766;51.502;9.752;2023-12-22T04:24:11;9.77;;;2.28;;
1545;SDS011;766;51.502;9.752;2023-12-22T04:26:39;11.35;;;2.60;;
1545;SDS011;766;51.502;9.752;2023-12-22T04:29:07;16.00;;;3.38;;
1545;SDS011;766;51.502;9.752;2023-12-22T04:31:38;12.40;;;2.90;;
1545;SDS011;766;51.502;9.752;2023-12-22T04:34:07;18.60;;;2.67;;
1545;SDS011;766;51.502;9.752;2023-12-22T04:36:35;13.88;;;2.88;;
1545;SDS011;766;51.502;9.752;2023-12-22T04:39:03;17.55;;;2.45;;
1545;SDS011;766;51.502;9.752;2023-12-22T04:41:33;12.35;;;2.92;;
1545;SDS011;766;51.502;9.752;2023-12-22T04:44:01;15.70;;;2.40;;
1545;SDS011;766;51.502;9.752;2023-12-22T04:46:29;16.02;;;2.50;;
1545;SDS011;766;51.502;9.752;2023-12-22T04:48:58;14.32;;;3.10;;
1545;SDS011;766;51.502;9.752;2023-12-22T04:51:26;7.65;;;2.10;;
1545;SDS011;766;51.502;9.752;2023-12-22T04:53:54;13.63;;;2.03;;
1545;SDS011;766;51.502;9.752;2023-12-22T04:56:23;12.48;;;1.77;;
1545;SDS011;766;51.502;9.752;2023-12-22T04:58:52;12.20;;;1.75;;
1545;SDS011;766;51.502;9.752;2023-12-22T05:01:21;16.10;;;2.17;;
1545;SDS011;766;51.502;9.752;2023-12-22T05:03:49;11.45;;;1.73;;
1545;SDS011;766;51.502;9.752;2023-12-22T05:06:17;3.05;;;1.10;;
1545;SDS011;766;51.502;9.752;2023-12-22T05:08:45;9.10;;;1.80;;
1545;SDS011;766;51.502;9.752;2023-12-22T05:11:14;15.15;;;2.83;;
1545;SDS011;766;51.502;9.752;2023-12-22T05:13:42;12.48;;;2.50;;
1545;SDS011;766;51.502;9.752;2023-12-22T05:16:12;10.02;;;1.70;;
1545;SDS011;766;51.502;9.752;2023-12-22T05:18:41;9.18;;;1.67;;
1545;SDS011;766;51.502;9.752;2023-12-22T05:21:11;6.05;;;1.38;;
1545;SDS011;766;51.502;9.752;2023-12-22T05:23:41;7.68;;;1.67;;
1545;SDS011;766;51.502;9.752;2023-12-22T05:26:09;10.82;;;2.08;;
1545;SDS011;766;51.502;9.752;2023-12-22T05:28:37;8.35;;;1.30;;
1545;SDS011;766;51.502;9.752;2023-12-22T05:31:05;9.93;;;1.15;;
1545;SDS011;766;51.502;9.752;2023-12-22T05:33:35;4.03;;;1.13;;
1545;SDS011;766;51.502;9.752;2023-12-22T05:36:03;5.68;;;0.95;;
1545;SDS011;766;51.502;9.752;2023-12-22T05:38:31;5.05;;;0.77;;
1545;SDS011;766;51.502;9.752;2023-12-22T05:41:00;8.15;;;1.20;;
1545;SDS011;766;51.502;9.752;2023-12-22T05:43:28;3.63;;;1.08;;
1545;SDS011;766;51.502;9.752;2023-12-22T05:45:56;4.38;;;0.85;;
1545;SDS011;766;51.502;9.752;2023-12-22T05:48:24;5.22;;;1.17;;
1545;SDS011;766;51.502;9.752;2023-12-22T05:50:57;2.50;;;0.80;;
1545;SDS011;766;51.502;9.752;2023-12-22T05:53:25;6.32;;;1.13;;
1545;SDS011;766;51.502;9.752;2023-12-22T05:55:53;8.18;;;1.92;;
1545;SDS011;766;51.502;9.752;2023-12-22T05:58:21;5.53;;;0.80;;
1545;SDS011;766;51.502;9.752;2023-12-22T06:00:49;1.77;;;0.50;;
1545;SDS011;766;51.502;9.752;2023-12-22T06:03:18;10.25;;;1.00;;
1545;SDS011;766;51.502;9.752;2023-12-22T06:05:46;3.88;;;0.88;;
1545;SDS011;766;51.502;9.752;2023-12-22T06:08:16;2.38;;;0.57;;
1545;SDS011;766;51.502;9.752;2023-12-22T06:10:44;5.20;;;0.68;;
1545;SDS011;766;51.502;9.752;2023-12-22T06:13:12;5.07;;;0.93;;
1545;SDS011;766;51.502;9.752;2023-12-22T06:15:41;3.75;;;0.82;;
1545;SDS011;766;51.502;9.752;2023-12-22T06:18:09;4.38;;;1.17;;
1545;SDS011;766;51.502;9.752;2023-12-22T06:20:37;6.60;;;0.85;;
1545;SDS011;766;51.502;9.752;2023-12-22T06:23:06;2.28;;;0.60;;
1545;SDS011;766;51.502;9.752;2023-12-22T06:25:35;4.70;;;0.90;;
1545;SDS011;766;51.502;9.752;2023-12-22T06:28:03;6.75;;;0.85;;
1545;SDS011;766;51.502;9.752;2023-12-22T06:30:32;6.72;;;0.90;;
1545;SDS011;766;51.502;9.752;2023-12-22T06:33:00;6.38;;;1.02;;
1545;SDS011;766;51.502;9.752;2023-12-22T06:35:28;7.65;;;1.00;;
1545;SDS011;766;51.502;9.752;2023-12-22T06:37:57;10.20;;;1.35;;
1545;SDS011;766;51.502;9.752;2023-12-22T06:40:30;6.15;;;1.17;;
1545;SDS011;766;51.502;9.752;2023-12-22T06:43:00;8.05;;;1.40;;
1545;SDS011;766;51.502;9.752;2023-12-22T06:45:28;5.15;;;1.98;;
1545;SDS011;766;51.502;9.752;2023-12-22T06:47:56;10.63;;;1.80;;
1545;SDS011;766;51.502;9.752;2023-12-22T06:50:25;7.35;;;1.45;;
1545;SDS011;766;51.502;9.752;2023-12-22T06:52:53;15.32;;;1.90;;
1545;SDS011;766;51.502;9.752;2023-12-22T06:55:21;8.98;;;1.27;;
1545;SDS011;766;51.502;9.752;2023-12-22T06:57:49;14.27;;;1.83;;
1545;SDS011;766;51.502;9.752;2023-12-22T07:00:19;9.00;;;1.52;;
1545;SDS011;766;51.502;9.752;2023-12-22T07:02:47;7.45;;;1.80;;
1545;SDS011;766;51.502;9.752;2023-12-22T07:05:30;10.40;;;1.48;;
1545;SDS011;766;51.502;9.752;2023-12-22T07:08:04;8.73;;;1.63;;
1545;SDS011;766;51.502;9.752;2023-12-22T07:10:33;7.65;;;1.38;;
1545;SDS011;766;51.502;9.752;2023-12-22T07:13:01;10.10;;;2.05;;
1545;SDS011;766;51.502;9.752;2023-12-22T07:15:33;13.07;;;1.85;;
1545;SDS011;766;51.502;9.752;2023-12-22T07:18:01;9.27;;;2.10;;
1545;SDS011;766;51.502;9.752;2023-12-22T07:20:30;8.90;;;1.58;;
1545;SDS011;766;51.502;9.752;2023-12-22T07:22:58;7.60;;;1.60;;
1545;SDS011;766;51.502;9.752;2023-12-22T07:25:27;8.43;;;1.85;;
1545;SDS011;766;51.502;9.752;2023-12-22T07:27:56;17.80;;;2.58;;
1545;SDS011;766;51.502;9.752;2023-12-22T07:30:24;13.93;;;2.30;;
1545;SDS011;766;51.502;9.752;2023-12-22T07:32:54;11.70;;;1.98;;
1545;SDS011;766;51.502;9.752;2023-12-22T07:35:22;10.27;;;1.80;;
1545;SDS011;766;51.502;9.752;2023-12-22T07:37:50;14.05;;;2.63;;
1545;SDS011;766;51.502;9.752;2023-12-22T07:40:21;9.40;;;1.80;;
1545;SDS011;766;51.502;9.752;2023-12-22T07:42:50;15.13;;;3.70;;
1545;SDS011;766;51.502;9.752;2023-12-22T07:45:18;15.75;;;1.67;;
1545;SDS011;766;51.502;9.752;2023-12-22T07:47:46;13.00;;;2.35;;
1545;SDS011;766;51.502;9.752;2023-12-22T07:50:16;10.80;;;1.90;;
1545;SDS011;766;51.502;9.752;2023-12-22T07:52:46;7.82;;;1.70;;
1545;SDS011;766;51.502;9.752;2023-12-22T07:55:14;7.47;;;1.50;;
1545;SDS011;766;51.502;9.752;2023-12-22T07:57:42;18.50;;;1.90;;
1545;SDS011;766;51.502;9.752;2023-12-22T08:00:12;11.40;;;2.00;;
1545;SDS011;766;51.502;9.752;2023-12-22T08:02:41;7.75;;;2.35;;
1545;SDS011;766;51.502;9.752;2023-12-22T08:05:09;10.57;;;1.95;;
1545;SDS011;766;51.502;9.752;2023-12-22T08:07:39;14.00;;;1.80;;
1545;SDS011;766;51.502;9.752;2023-12-22T08:10:08;12.80;;;2.08;;
1545;SDS011;766;51.502;9.752;2023-12-22T08:12:36;14.32;;;2.38;;
1545;SDS011;766;51.502;9.752;2023-12-22T08:15:04;14.68;;;2.65;;
1545;SDS011;766;51.502;9.752;2023-12-22T08:17:34;12.82;;;2.30;;
1545;SDS011;766;51.502;9.752;2023-12-22T08:20:02;9.35;;;1.80;;
1545;SDS011;766;51.502;9.752;2023-12-22T08:22:44;10.73;;;2.30;;
1545;SDS011;766;51.502;9.752;2023-12-22T08:25:16;13.15;;;1.90;;
1545;SDS011;766;51.502;9.752;2023-12-22T08:27:46;10.90;;;2.03;;
1545;SDS011;766;51.502;9.752;2023-12-22T08:30:15;11.70;;;3.42;;
1545;SDS011;766;51.502;9.752;2023-12-22T08:32:43;16.60;;;2.30;;
1545;SDS011;766;51.502;9.752;2023-12-22T08:35:11;8.50;;;1.88;;
1545;SDS011;766;51.502;9.752;2023-12-22T08:37:39;14.98;;;3.85;;
1545;SDS011;766;51.502;9.752;2023-12-22T08:40:10;13.85;;;2.00;;
1545;SDS011;766;51.502;9.752;2023-12-22T08:42:38;12.10;;;2.83;;
1545;SDS011;766;51.502;9.752;2023-12-22T08:45:06;14.82;;;2.38;;
1545;SDS011;766;51.502;9.752;2023-12-22T08:47:35;9.70;;;1.73;;
1545;SDS011;766;51.502;9.752;2023-12-22T08:50:04;15.02;;;2.63;;
1545;SDS011;766;51.502;9.752;2023-12-22T08:52:34;11.48;;;2.00;;
1545;SDS011;766;51.502;9.752;2023-12-22T08:55:02;18.95;;;2.03;;
1545;SDS011;766;51.502;9.752;2023-12-22T08:57:33;11.77;;;2.28;;
1545;SDS011;766;51.502;9.752;2023-12-22T09:00:01;18.13;;;2.72;;
1545;SDS011;766;51.502;9.752;2023-12-22T09:02:30;8.32;;;2.10;;
1545;SDS011;766;51.502;9.752;2023-12-22T09:04:59;14.55;;;2.28;;
1545;SDS011;766;51.502;9.752;2023-12-22T09:07:27;6.78;;;1.85;;
1545;SDS011;766;51.502;9.752;2023-12-22T09:09:55;18.55;;;2.25;;
1545;SDS011;766;51.502;9.752;2023-12-22T09:12:24;11.63;;;2.58;;
1545;SDS011;766;51.502;9.752;2023-12-22T09:14:54;8.02;;;2.38;;
1545;SDS011;766;51.502;9.752;2023-12-22T09:17:22;14.18;;;2.28;;
1545;SDS011;766;51.502;9.752;2023-12-22T09:19:54;8.80;;;1.67;;
1545;SDS011;766;51.502;9.752;2023-12-22T09:22:22;15.95;;;2.45;;
1545;SDS011;766;51.502;9.752;2023-12-22T09:24:51;10.63;;;2.13;;
1545;SDS011;766;51.502;9.752;2023-12-22T09:27:19;14.20;;;2.00;;
1545;SDS011;766;51.502;9.752;2023-12-22T09:29:47;12.27;;;1.67;;
1545;SDS011;766;51.502;9.752;2023-12-22T09:32:17;13.25;;;2.17;;
1545;SDS011;766;51.502;9.752;2023-12-22T09:34:45;18.23;;;2.40;;
1545;SDS011;766;51.502;9.752;2023-12-22T09:37:13;20.83;;;2.35;;
1545;SDS011;766;51.502;9.752;2023-12-22T09:39:41;16.73;;;2.17;;
1545;SDS011;766;51.502;9.752;2023-12-22T09:42:10;13.40;;;2.08;;
1545;SDS011;766;51.502;9.752;2023-12-22T09:44:38;11.93;;;2.33;;
1545;SDS011;766;51.502;9.752;2023-12-22T09:47:09;12.93;;;2.42;;
1545;SDS011;766;51.502;9.752;2023-12-22T09:49:40;9.13;;;2.17;;
1545;SDS011;766;51.502;9.752;2023-12-22T09:52:09;8.18;;;1.50;;
1545;SDS011;766;51.502;9.752;2023-12-22T09:54:38;11.63;;;3.05;;
1545;SDS011;766;51.502;9.752;2023-12-22T09:57:07;10.07;;;1.88;;
1545;SDS011;766;51.502;9.752;2023-12-22T09:59:51;13.00;;;1.83;;
1545;SDS011;766;51.502;9.752;2023-12-22T10:02:19;15.02;;;2.33;;
1545;SDS011;766;51.502;9.752;2023-12-22T10:04:52;9.82;;;1.80;;
1545;SDS011;766;51.502;9.752;2023-12-22T10:07:20;13.23;;;1.67;;
1545;SDS011;766;51.502;9.752;2023-12-22T10:09:49;7.85;;;1.65;;
1545;SDS011;766;51.502;9.752;2023-12-22T10:12:20;11.40;;;2.42;;
1545;SDS011;766;51.502;9.752;2023-12-22T10:14:48;8.55;;;1.35;;
1545;SDS011;766;51.502;9.752;2023-12-22T10:17:18;7.95;;;1.42;;
1545;SDS011;766;51.502;9.752;2023-12-22T10:19:47;5.65;;;1.30;;
1545;SDS011;766;51.502;9.752;2023-12-22T10:22:16;3.35;;;2.88;;
1545;SDS011;766;51.502;9.752;2023-12-22T10:24:45;6.68;;;1.10;;
1545;SDS011;766;51.502;9.752;2023-12-22T10:27:15;2.80;;;0.82;;
1545;SDS011;766;51.502;9.752;2023-12-22T10:29:48;3.10;;;1.00;;
1545;SDS011;766;51.502;9.752;2023-12-22T10:32:17;2.88;;;0.80;;
1545;SDS011;766;51.502;9.752;2023-12-22T10:34:45;3.00;;;0.90;;
1545;SDS011;766;51.502;9.752;2023-12-22T10:37:13;4.05;;;1.30;;
1545;SDS011;766;51.502;9.752;2023-12-22T10:39:43;3.47;;;1.45;;
1545;SDS011;766;51.502;9.752;2023-12-22T10:42:15;5.80;;;1.20;;
1545;SDS011;766;51.502;9.752;2023-12-22T10:44:44;5.65;;;1.17;;
1545;SDS011;766;51.502;9.752;2023-12-22T10:47:15;3.38;;;0.80;;
1545;SDS011;766;51.502;9.752;2023-12-22T10:49:45;5.32;;;1.05;;
1545;SDS011;766;51.502;9.752;2023-12-22T10:52:15;7.97;;;1.30;;
1545;SDS011;766;51.502;9.752;2023-12-22T10:54:45;5.20;;;1.00;;
1545;SDS011;766;51.502;9.752;2023-12-22T10:57:17;4.85;;;1.00;;
1545;SDS011;766;51.502;9.752;2023-12-22T10:59:46;4.88;;;1.38;;
1545;SDS011;766;51.502;9.752;2023-12-22T11:02:18;5.72;;;1.63;;
1545;SDS011;766;51.502;9.752;2023-12-22T11:04:47;7.43;;;1.30;;
1545;SDS011;766;51.502;9.752;2023-12-22T11:07:24;3.75;;;1.33;;
1545;SDS011;766;51.502;9.752;2023-12-22T11:09:55;9.57;;;1.50;;
1545;SDS011;766;51.502;9.752;2023-12-22T11:12:28;5.22;;;1.52;;
1545;SDS011;766;51.502;9.752;2023-12-22T11:14:58;8.40;;;1.15;;
1545;SDS011;766;51.502;9.752;2023-12-22T11:17:27;7.85;;;1.30;;
1545;SDS011;766;51.502;9.752;2023-12-22T11:19:56;7.22;;;1.17;;
1545;SDS011;766;51.502;9.752;2023-12-22T11:22:25;3.25;;;1.10;;
1545;SDS011;766;51.502;9.752;2023-12-22T11:24:56;6.53;;;1.33;;
1545;SDS011;766;51.502;9.752;2023-12-22T11:27:27;3.55;;;0.90;;
1545;SDS011;766;51.502;9.752;2023-12-22T11:29:56;3.78;;;1.10;;
1545;SDS011;766;51.502;9.752;2023-12-22T11:32:28;6.70;;;1.30;;
1545;SDS011;766;51.502;9.752;2023-12-22T11:34:57;5.22;;;0.90;;
1545;SDS011;766;51.502;9.752;2023-12-22T11:37:27;6.10;;;1.02;;
1545;SDS011;766;51.502;9.752;2023-12-22T11:39:59;4.93;;;0.90;;
1545;SDS011;766;51.502;9.752;2023-12-22T11:42:28;3.50;;;0.80;;
1545;SDS011;766;51.502;9.752;2023-12-22T11:45:03;5.00;;;1.17;;
1545;SDS011;766;51.502;9.752;2023-12-22T11:47:32;5.95;;;2.00;;
1545;SDS011;766;51.502;9.752;2023-12-22T11:50:02;4.90;;;0.77;;
1545;SDS011;766;51.502;9.752;2023-12-22T11:52:30;3.63;;;0.90;;
1545;SDS011;766;51.502;9.752;2023-12-22T11:55:00;3.30;;;0.98;;
1545;SDS011;766;51.502;9.752;2023-12-22T11:57:29;1.92;;;0.65;;
1545;SDS011;766;51.502;9.752;2023-12-22T11:59:59;15.10;;;3.35;;
1545;SDS011;766;51.502;9.752;2023-12-22T12:02:32;5.00;;;1.17;;
1545;SDS011;766;51.502;9.752;2023-12-22T12:05:02;2.60;;;0.88;;
1545;SDS011;766;51.502;9.752;2023-12-22T12:07:40;6.05;;;1.48;;
1545;SDS011;766;51.502;9.752;2023-12-22T12:13:14;3.55;;;1.13;;
1545;SDS011;766;51.502;9.752;2023-12-22T12:15:44;4.80;;;1.10;;
1545;SDS011;766;51.502;9.752;2023-12-22T12:18:13;7.40;;;1.35;;
1545;SDS011;766;51.502;9.752;2023-12-22T12:20:42;3.35;;;1.02;;
1545;SDS011;766;51.502;9.752;2023-12-22T12:23:12;12.43;;;1.50;;
1545;SDS011;766;51.502;9.752;2023-12-22T12:25:42;4.75;;;1.10;;
1545;SDS011;766;51.502;9.752;2023-12-22T12:28:10;6.68;;;1.50;;
1545;SDS011;766;51.502;9.752;2023-12-22T12:30:40;9.30;;;1.55;;
1545;SDS011;766;51.502;9.752;2023-12-22T12:33:09;3.28;;;0.93;;
1545;SDS011;766;51.502;9.752;2023-12-22T12:35:39;3.00;;;1.00;;
1545;SDS011;766;51.502;9.752;2023-12-22T12:38:14;5.30;;;1.33;;
1545;SDS011;766;51.502;9.752;2023-12-22T12:40:45;4.82;;;1.20;;
1545;SDS011;766;51.502;9.752;2023-12-22T12:43:15;4.45;;;1.20;;
1545;SDS011;766;51.502;9.752;2023-12-22T12:45:45;7.00;;;1.02;;
1545;SDS011;766;51.502;9.752;2023-12-22T12:48:15;4.53;;;0.95;;
1545;SDS011;766;51.502;9.752;2023-12-22T12:50:45;5.43;;;1.40;;
1545;SDS011;766;51.502;9.752;2023-12-22T12:53:13;4.85;;;1.13;;
1545;SDS011;766;51.502;9.752;2023-12-22T12:55:41;5.38;;;1.25;;
1545;SDS011;766;51.502;9.752;2023-12-22T12:58:12;7.45;;;1.10;;
1545;SDS011;766;51.502;9.752;2023-12-22T13:00:40;5.82;;;1.10;;
1545;SDS011;766;51.502;9.752;2023-12-22T13:03:10;3.28;;;0.88;;
1545;SDS011;766;51.502;9.752;2023-12-22T13:05:38;3.85;;;0.98;;
1545;SDS011;766;51.502;9.752;2023-12-22T13:08:07;4.40;;;1.30;;
1545;SDS011;766;51.502;9.752;2023-12-22T13:10:38;3.13;;;1.25;;
1545;SDS011;766;51.502;9.752;2023-12-22T13:13:08;3.75;;;0.90;;
1545;SDS011;766;51.502;9.752;2023-12-22T13:15:39;3.92;;;0.93;;
1545;SDS011;766;51.502;9.752;2023-12-22T13:18:10;4.38;;;1.20;;
1545;SDS011;766;51.502;9.752;2023-12-22T13:20:38;3.05;;;0.80;;
1545;SDS011;766;51.502;9.752;2023-12-22T13:23:07;2.03;;;0.88;;
1545;SDS011;766;51.502;9.752;2023-12-22T13:25:38;4.18;;;0.80;;
1545;SDS011;766;51.502;9.752;2023-12-22T13:28:07;3.03;;;0.73;;
1545;SDS011;766;51.502;9.752;2023-12-22T13:30:35;1.27;;;0.63;;
1545;SDS011;766;51.502;9.752;2023-12-22T13:33:09;3.17;;;0.90;;
1545;SDS011;766;51.502;9.752;2023-12-22T13:35:41;3.47;;;0.73;;
1545;SDS011;766;51.502;9.752;2023-12-22T13:38:09;1.23;;;0.55;;
1545;SDS011;766;51.502;9.752;2023-12-22T13:40:38;4.80;;;0.70;;
1545;SDS011;766;51.502;9.752;2023-12-22T13:43:06;2.53;;;0.60;;
1545;SDS011;766;51.502;9.752;2023-12-22T13:45:35;3.10;;;0.65;;
1545;SDS011;766;51.502;9.752;2023-12-22T13:48:03;4.72;;;0.65;;
1545;SDS011;766;51.502;9.752;2023-12-22T13:50:34;1.77;;;0.57;;
1545;SDS011;766;51.502;9.752;2023-12-22T13:53:09;1.73;;;0.50;;
1545;SDS011;766;51.502;9.752;2023-12-22T13:55:38;1.58;;;0.40;;
1545;SDS011;766;51.502;9.752;2023-12-22T13:58:07;2.70;;;0.70;;
1545;SDS011;766;51.502;9.752;2023-12-22T14:00:38;1.08;;;0.63;;
1545;SDS011;766;51.502;9.752;2023-12-22T14:03:09;0.73;;;0.40;;
1545;SDS011;766;51.502;9.752;2023-12-22T14:05:39;1.30;;;0.60;;
1545;SDS011;766;51.502;9.752;2023-12-22T14:08:07;0.50;;;0.35;;
1545;SDS011;766;51.502;9.752;2023-12-22T14:10:35;3.97;;;0.45;;
1545;SDS011;766;51.502;9.752;2023-12-22T14:13:04;0.40;;;0.30;;
1545;SDS011;766;51.502;9.752;2023-12-22T14:15:32;3.35;;;0.45;;
1545;SDS011;766;51.502;9.752;2023-12-22T14:18:10;1.60;;;1.05;;
1545;SDS011;766;51.502;9.752;2023-12-22T14:20:40;1.13;;;0.40;;
1545;SDS011;766;51.502;9.752;2023-12-22T14:23:09;1.08;;;0.35;;
1545;SDS011;766;51.502;9.752;2023-12-22T14:25:43;0.77;;;0.50;;
1545;SDS011;766;51.502;9.752;2023-12-22T14:28:11;1.50;;;0.50;;
1545;SDS011;766;51.502;9.752;2023-12-22T14:30:39;1.17;;;0.45;;
1545;SDS011;766;51.502;9.752;2023-12-22T14:33:08;3.00;;;0.57;;
1545;SDS011;766;51.502;9.752;2023-12-22T14:35:36;0.95;;;0.38;;
1545;SDS011;766;51.502;9.752;2023-12-22T14:38:06;1.55;;;0.50;;
1545;SDS011;766;51.502;9.752;2023-12-22T14:40:34;7.57;;;1.17;;
1545;SDS011;766;51.502;9.752;2023-12-22T14:43:02;1.67;;;0.60;;
1545;SDS011;766;51.502;9.752;2023-12-22T14:45:31;2.25;;;0.60;;
1545;SDS011;766;51.502;9.752;2023-12-22T14:47:59;1.30;;;0.60;;
1545;SDS011;766;51.502;9.752;2023-12-22T14:50:27;1.52;;;0.77;;
1545;SDS011;766;51.502;9.752;2023-12-22T14:52:56;1.92;;;0.55;;
1545;SDS011;766;51.502;9.752;2023-12-22T14:55:25;1.35;;;0.40;;
1545;SDS011;766;51.502;9.752;2023-12-22T14:57:54;1.55;;;0.60;;
1545;SDS011;766;51.502;9.752;2023-12-22T15:00:22;2.45;;;0.70;;
1545;SDS011;766;51.502;9.752;2023-12-22T15:02:50;2.33;;;0.40;;
1545;SDS011;766;51.502;9.752;2023-12-22T15:05:19;0.40;;;0.40;;
1545;SDS011;766;51.502;9.752;2023-12-22T15:07:47;1.23;;;0.40;;
1545;SDS011;766;51.502;9.752;2023-12-22T15:10:18;0.40;;;0.40;;
1545;SDS011;766;51.502;9.752;2023-12-22T15:12:47;2.28;;;0.43;;
1545;SDS011;766;51.502;9.752;2023-12-22T15:15:16;0.20;;;0.20;;
1545;SDS011;766;51.502;9.752;2023-12-22T15:17:44;1.90;;;0.30;;
1545;SDS011;766;51.502;9.752;2023-12-22T15:20:16;0.40;;;0.40;;
1545;SDS011;766;51.502;9.752;2023-12-22T15:22:44;1.65;;;0.80;;
1545;SDS011;766;51.502;9.752;2023-12-22T15:25:13;4.38;;;0.93;;
1545;SDS011;766;51.502;9.752;2023-12-22T15:27:41;3.05;;;0.65;;
1545;SDS011;766;51.502;9.752;2023-12-22T15:30:12;2.25;;;0.98;;
1545;SDS011;766;51.502;9.752;2023-12-22T15:32:41;1.45;;;0.50;;
1545;SDS011;766;51.502;9.752;2023-12-22T15:35:09;0.65;;;0.65;;
1545;SDS011;766;51.502;9.752;2023-12-22T15:37:37;2.15;;;0.40;;